createdAt,value
2023-01-28T00:01:33.270Z,98506.00
2023-01-28T00:04:00.905Z,98504.00
2023-01-28T00:06:28.847Z,98502.00
2023-01-28T00:08:57.089Z,98499.00
2023-01-28T00:11:24.697Z,98502.00
2023-01-28T00:13:53.271Z,98500.00
2023-01-28T00:16:22.602Z,98507.00
2023-01-28T00:18:51.820Z,98503.00
2023-01-28T00:21:19.920Z,98497.00
2023-01-28T00:23:51.418Z,98498.00
2023-01-28T00:26:19.406Z,98499.00
2023-01-28T00:28:48.236Z,98499.00
2023-01-28T00:31:18.463Z,98500.00
2023-01-28T00:33:47.174Z,98498.00
2023-01-28T00:36:17.130Z,98492.00
2023-01-28T00:38:45.093Z,98493.00
2023-01-28T00:41:14.791Z,98492.00
2023-01-28T00:43:45.552Z,98494.00
2023-01-28T00:46:14.182Z,98496.00
2023-01-28T00:48:42.979Z,98493.00
2023-01-28T00:51:11.985Z,98498.00
2023-01-28T00:53:41.384Z,98497.00
2023-01-28T00:56:12.437Z,98500.00
2023-01-28T00:58:40.203Z,98506.00
2023-01-28T01:01:09.455Z,98501.00
2023-01-28T01:03:37.110Z,98503.00
2023-01-28T01:06:05.399Z,98504.00
2023-01-28T01:08:35.967Z,98510.00
2023-01-28T01:11:06.016Z,98508.00
2023-01-28T01:13:35.215Z,98516.00
2023-01-28T01:16:04.574Z,98520.00
2023-01-28T01:18:32.234Z,98515.00
2023-01-28T01:20:59.881Z,98521.00
2023-01-28T01:23:28.001Z,98518.00
2023-01-28T01:25:55.960Z,98513.00
2023-01-28T01:28:24.983Z,98521.00
2023-01-28T01:31:00.656Z,98510.00
2023-01-28T01:33:30.491Z,98511.00
2023-01-28T01:35:58.772Z,98517.00
2023-01-28T01:38:26.642Z,98512.00
2023-01-28T01:40:57.890Z,98524.00
2023-01-28T01:43:46.989Z,98534.00
2023-01-28T01:46:16.768Z,98528.00
2023-01-28T01:48:44.665Z,98520.00
2023-01-28T01:51:16.253Z,98528.00
2023-01-28T01:53:46.216Z,98534.00
2023-01-28T01:56:17.575Z,98538.00
2023-01-28T01:58:50.357Z,98535.00
2023-01-28T02:01:20.219Z,98535.00
2023-01-28T02:03:56.298Z,98539.00
2023-01-28T02:06:24.467Z,98531.00
2023-01-28T02:08:55.423Z,98539.00
2023-01-28T02:11:24.730Z,98544.00
2023-01-28T02:13:57.312Z,98535.00
2023-01-28T02:16:26.444Z,98540.00
2023-01-28T02:18:54.201Z,98549.00
2023-01-28T02:21:40.995Z,98541.00
2023-01-28T02:24:29.349Z,98541.00
2023-01-28T02:27:12.701Z,98548.00
2023-01-28T02:29:49.707Z,98536.00
2023-01-28T02:32:22.521Z,98541.00
2023-01-28T02:34:57.460Z,98543.00
2023-01-28T02:37:30.450Z,98544.00
2023-01-28T02:40:02.121Z,98541.00
2023-01-28T02:42:31.649Z,98534.00
2023-01-28T02:45:00.951Z,98539.00
2023-01-28T02:47:46.150Z,98530.00
2023-01-28T02:50:17.383Z,98537.00
2023-01-28T02:53:15.955Z,98539.00
2023-01-28T02:55:52.343Z,98537.00
2023-01-28T02:58:27.865Z,98542.00
2023-01-28T03:01:03.835Z,98539.00
2023-01-28T03:03:41.375Z,98549.00
2023-01-28T03:06:13.452Z,98549.00
2023-01-28T03:09:05.052Z,98544.00
2023-01-28T03:11:54.602Z,98544.00
2023-01-28T03:14:42.163Z,98550.00
2023-01-28T03:17:37.321Z,98557.00
2023-01-28T03:20:23.395Z,98558.00
2023-01-28T03:23:11.754Z,98555.00
2023-01-28T03:26:00.460Z,98555.00
2023-01-28T03:28:48.079Z,98557.00
2023-01-28T03:31:36.268Z,98546.00
2023-01-28T03:34:24.345Z,98563.00
2023-01-28T03:36:53.327Z,98564.00
2023-01-28T03:39:24.157Z,98564.00
2023-01-28T03:42:00.199Z,98569.00
2023-01-28T03:44:45.915Z,98570.00
2023-01-28T03:47:13.923Z,98573.00
2023-01-28T03:49:45.523Z,98573.00
2023-01-28T03:52:13.995Z,98573.00
2023-01-28T03:54:41.595Z,98574.00
2023-01-28T03:57:09.511Z,98582.00
2023-01-28T03:59:37.101Z,98580.00
2023-01-28T04:02:06.275Z,98573.00
2023-01-28T04:04:33.953Z,98575.00
2023-01-28T04:07:02.908Z,98579.00
2023-01-28T04:09:30.493Z,98582.00
2023-01-28T04:11:58.166Z,98587.00
2023-01-28T04:14:25.775Z,98586.00
2023-01-28T04:16:54.902Z,98589.00
2023-01-28T04:19:23.315Z,98600.00
2023-01-28T04:21:53.891Z,98590.00
2023-01-28T04:24:23.482Z,98602.00
2023-01-28T04:26:51.184Z,98602.00
2023-01-28T04:29:18.789Z,98602.00
2023-01-28T04:31:46.427Z,98602.00
2023-01-28T04:34:14.170Z,98608.00
2023-01-28T04:36:41.778Z,98613.00
2023-01-28T04:39:09.373Z,98604.00
2023-01-28T04:41:38.482Z,98607.00
2023-01-28T04:44:06.073Z,98612.00
2023-01-28T04:46:33.785Z,98615.00
2023-01-28T04:49:02.095Z,98605.00
2023-01-28T04:51:29.789Z,98607.00
2023-01-28T04:53:57.403Z,98613.00
2023-01-28T04:56:25.035Z,98616.00
2023-01-28T04:58:54.001Z,98617.00
2023-01-28T05:01:21.658Z,98622.00
2023-01-28T05:03:49.309Z,98610.00
2023-01-28T05:06:17.076Z,98615.00
2023-01-28T05:08:46.225Z,98620.00
2023-01-28T05:11:14.418Z,98608.00
2023-01-28T05:13:42.046Z,98612.00
2023-01-28T05:16:11.016Z,98620.00
2023-01-28T05:18:38.710Z,98613.00
2023-01-28T05:21:06.813Z,98617.00
2023-01-28T05:23:34.700Z,98615.00
2023-01-28T05:26:02.333Z,98619.00
2023-01-28T05:28:30.223Z,98615.00
2023-01-28T05:30:57.908Z,98614.00
2023-01-28T05:33:26.843Z,98620.00
2023-01-28T05:35:54.459Z,98623.00
2023-01-28T05:38:22.059Z,98624.00
2023-01-28T05:40:49.843Z,98622.00
2023-01-28T05:43:17.781Z,98622.00
2023-01-28T05:45:45.644Z,98624.00
2023-01-28T05:48:13.272Z,98623.00
2023-01-28T05:50:42.252Z,98621.00
2023-01-28T05:53:10.597Z,98621.00
2023-01-28T05:55:38.213Z,98622.00
2023-01-28T05:58:05.847Z,98627.00
2023-01-28T06:00:33.540Z,98630.00
2023-01-28T06:03:01.215Z,98626.00
2023-01-28T06:05:28.853Z,98630.00
2023-01-28T06:07:57.873Z,98634.00
2023-01-28T06:10:25.578Z,98630.00
2023-01-28T06:12:53.192Z,98633.00
2023-01-28T06:15:21.352Z,98637.00
2023-01-28T06:17:49.478Z,98635.00
2023-01-28T06:20:18.106Z,98648.00
2023-01-28T06:22:46.299Z,98642.00
2023-01-28T06:25:15.499Z,98644.00
2023-01-28T06:27:43.230Z,98652.00
2023-01-28T06:30:11.953Z,98650.00
2023-01-28T06:32:40.424Z,98662.00
2023-01-28T06:35:10.130Z,98661.00
2023-01-28T06:37:37.822Z,98661.00
2023-01-28T06:40:06.397Z,98661.00
2023-01-28T06:42:35.465Z,98671.00
2023-01-28T06:45:03.094Z,98666.00
2023-01-28T06:47:30.780Z,98671.00
2023-01-28T06:49:58.375Z,98681.00
2023-01-28T06:52:26.007Z,98671.00
2023-01-28T06:54:53.585Z,98671.00
2023-01-28T06:57:21.215Z,98676.00
2023-01-28T06:59:50.244Z,98678.00
2023-01-28T07:02:17.872Z,98675.00
2023-01-28T07:04:45.507Z,98679.00
2023-01-28T07:07:13.092Z,98686.00
2023-01-28T07:09:40.700Z,98688.00
2023-01-28T07:12:08.461Z,98691.00
2023-01-28T07:14:36.140Z,98693.00
2023-01-28T07:17:05.354Z,98693.00
2023-01-28T07:19:33.183Z,98696.00
2023-01-28T07:22:03.063Z,98701.00
2023-01-28T07:24:31.275Z,98703.00
2023-01-28T07:26:59.027Z,98701.00
2023-01-28T07:29:27.672Z,98704.00
2023-01-28T07:31:55.376Z,98709.00
2023-01-28T07:34:24.875Z,98709.00
2023-01-28T07:36:52.526Z,98707.00
2023-01-28T07:39:20.123Z,98710.00
2023-01-28T07:41:47.884Z,98708.00
2023-01-28T07:44:15.539Z,98709.00
2023-01-28T07:46:43.181Z,98714.00
2023-01-28T07:49:10.910Z,98710.00
2023-01-28T07:51:39.998Z,98721.00
2023-01-28T07:54:07.637Z,98722.00
2023-01-28T07:56:35.297Z,98722.00
2023-01-28T07:59:03.387Z,98720.00
2023-01-28T08:01:31.327Z,98717.00
2023-01-28T08:03:59.037Z,98727.00
2023-01-28T08:06:26.665Z,98716.00
2023-01-28T08:08:55.937Z,98718.00
2023-01-28T08:11:24.245Z,98727.00
2023-01-28T08:13:51.836Z,98723.00
2023-01-28T08:16:19.624Z,98724.00
2023-01-28T08:18:47.269Z,98723.00
2023-01-28T08:21:14.844Z,98728.00
2023-01-28T08:23:42.451Z,98730.00
2023-01-28T08:26:11.392Z,98736.00
2023-01-28T08:28:39.237Z,98731.00
2023-01-28T08:31:06.966Z,98732.00
2023-01-28T08:33:34.718Z,98735.00
2023-01-28T08:36:03.860Z,98735.00
2023-01-28T08:38:31.698Z,98736.00
2023-01-28T08:40:59.919Z,98729.00
2023-01-28T08:43:28.964Z,98736.00
2023-01-28T08:45:56.546Z,98733.00
2023-01-28T08:48:24.431Z,98728.00
2023-01-28T08:50:52.141Z,98737.00
2023-01-28T08:53:21.086Z,98745.00
2023-01-28T08:55:48.796Z,98739.00
2023-01-28T08:58:18.079Z,98740.00
2023-01-28T09:00:48.248Z,98741.00
2023-01-28T09:03:16.038Z,98747.00
2023-01-28T09:05:43.933Z,98744.00
2023-01-28T09:08:13.316Z,98762.00
2023-01-28T09:10:42.017Z,98755.00
2023-01-28T09:13:11.383Z,98754.00
2023-01-28T09:15:39.304Z,98749.00
2023-01-28T09:18:08.425Z,98745.00
2023-01-28T09:20:36.342Z,98751.00
2023-01-28T09:23:03.987Z,98751.00
2023-01-28T09:25:32.004Z,98752.00
2023-01-28T09:27:59.937Z,98756.00
2023-01-28T09:30:27.852Z,98764.00
2023-01-28T09:32:58.096Z,98766.00
2023-01-28T09:35:27.117Z,98763.00
2023-01-28T09:37:58.333Z,98763.00
2023-01-28T09:40:36.529Z,98767.00
2023-01-28T09:43:20.876Z,98770.00
2023-01-28T09:45:50.006Z,98774.00
2023-01-28T09:48:21.637Z,98776.00
2023-01-28T09:50:53.488Z,98778.00
2023-01-28T09:53:24.551Z,98776.00
2023-01-28T09:55:56.333Z,98776.00
2023-01-28T09:58:24.199Z,98781.00
2023-01-28T10:01:00.488Z,98787.00
2023-01-28T10:03:38.314Z,98793.00
2023-01-28T10:06:18.474Z,98785.00
2023-01-28T10:09:05.576Z,98783.00
2023-01-28T10:11:44.557Z,98782.00
2023-01-28T10:14:17.778Z,98787.00
2023-01-28T10:16:51.842Z,98775.00
2023-01-28T10:19:24.424Z,98774.00
2023-01-28T10:21:58.308Z,98777.00
2023-01-28T10:24:32.567Z,98782.00
2023-01-28T10:27:00.981Z,98768.00
2023-01-28T10:29:30.982Z,98777.00
2023-01-28T10:32:04.681Z,98785.00
2023-01-28T10:34:32.692Z,98784.00
2023-01-28T10:37:01.834Z,98770.00
2023-01-28T10:39:30.076Z,98769.00
2023-01-28T10:41:58.824Z,98766.00
2023-01-28T10:44:35.773Z,98766.00
2023-01-28T10:47:10.594Z,98764.00
2023-01-28T10:49:44.951Z,98764.00
2023-01-28T10:52:15.194Z,98767.00
2023-01-28T10:54:42.845Z,98759.00
2023-01-28T10:57:14.033Z,98762.00
2023-01-28T10:59:42.841Z,98769.00
2023-01-28T11:02:27.230Z,98776.00
2023-01-28T11:05:09.018Z,98774.00
2023-01-28T11:07:38.022Z,98782.00
2023-01-28T11:10:27.603Z,98784.00
2023-01-28T11:12:59.266Z,98780.00
2023-01-28T11:15:27.309Z,98776.00
2023-01-28T11:17:58.679Z,98769.00
2023-01-28T11:20:29.514Z,98780.00
2023-01-28T11:22:59.075Z,98775.00
2023-01-28T11:25:31.914Z,98775.00
2023-01-28T11:28:01.598Z,98781.00
2023-01-28T11:30:32.545Z,98781.00
2023-01-28T11:33:08.482Z,98784.00
2023-01-28T11:35:36.208Z,98783.00
2023-01-28T11:38:18.346Z,98783.00
2023-01-28T11:40:51.167Z,98783.00
2023-01-28T11:43:18.805Z,98785.00
2023-01-28T11:45:56.667Z,98782.00
2023-01-28T11:48:36.683Z,98781.00
2023-01-28T11:51:08.472Z,98781.00
2023-01-28T11:54:01.870Z,98784.00
2023-01-28T11:56:43.201Z,98780.00
2023-01-28T11:59:26.709Z,98771.00
2023-01-28T12:02:02.824Z,98773.00
2023-01-28T12:04:58.671Z,98772.00
2023-01-28T12:07:40.157Z,98771.00
2023-01-28T12:10:21.000Z,98771.00
2023-01-28T12:13:03.795Z,98765.00
2023-01-28T12:16:02.561Z,98764.00
2023-01-28T12:18:46.826Z,98759.00
2023-01-28T12:21:26.952Z,98759.00
2023-01-28T12:24:10.562Z,98763.00
2023-01-28T12:26:49.174Z,98771.00
2023-01-28T12:29:27.671Z,98770.00
2023-01-28T12:32:07.533Z,98771.00
2023-01-28T12:35:08.830Z,98773.00
2023-01-28T12:37:48.512Z,98780.00
2023-01-28T12:40:34.824Z,98765.00
2023-01-28T12:43:14.097Z,98769.00
2023-01-28T12:45:46.099Z,98765.00
2023-01-28T12:48:18.851Z,98767.00
2023-01-28T12:50:52.903Z,98761.00
2023-01-28T12:53:26.245Z,98770.00
2023-01-28T12:55:57.518Z,98771.00
2023-01-28T12:58:37.769Z,98757.00
2023-01-28T13:01:10.433Z,98755.00
2023-01-28T13:03:44.800Z,98756.00
2023-01-28T13:06:18.167Z,98756.00
2023-01-28T13:08:45.797Z,98752.00
2023-01-28T13:11:18.100Z,98756.00
2023-01-28T13:13:47.812Z,98756.00
2023-01-28T13:16:15.700Z,98754.00
2023-01-28T13:18:46.471Z,98764.00
2023-01-28T13:21:17.305Z,98760.00
2023-01-28T13:23:47.908Z,98759.00
2023-01-28T13:26:38.390Z,98762.00
2023-01-28T13:29:20.789Z,98763.00
2023-01-28T13:31:52.393Z,98762.00
2023-01-28T13:34:38.043Z,98762.00
2023-01-28T13:37:18.062Z,98767.00
2023-01-28T13:39:50.975Z,98779.00
2023-01-28T13:42:28.149Z,98774.00
2023-01-28T13:45:10.363Z,98779.00
2023-01-28T13:47:39.377Z,98772.00
2023-01-28T13:50:14.903Z,98776.00
2023-01-28T13:52:48.085Z,98781.00
2023-01-28T13:55:37.353Z,98772.00
2023-01-28T13:58:37.711Z,98788.00
2023-01-28T14:01:41.238Z,98793.00
2023-01-28T14:04:40.317Z,98786.00
2023-01-28T14:07:22.085Z,98797.00
2023-01-28T14:10:15.575Z,98801.00
2023-01-28T14:13:14.943Z,98801.00
2023-01-28T14:15:56.452Z,98806.00
2023-01-28T14:18:30.726Z,98802.00
2023-01-28T14:21:02.320Z,98808.00
2023-01-28T14:23:32.301Z,98801.00
2023-01-28T14:26:12.678Z,98812.00
2023-01-28T14:28:48.275Z,98819.00
2023-01-28T14:31:22.796Z,98812.00
2023-01-28T14:33:51.913Z,98812.00
2023-01-28T14:36:20.210Z,98821.00
2023-01-28T14:38:48.700Z,98833.00
2023-01-28T14:41:28.590Z,98832.00
2023-01-28T14:43:57.745Z,98839.00
2023-01-28T14:46:36.042Z,98840.00
2023-01-28T14:49:22.820Z,98837.00
2023-01-28T14:52:15.442Z,98838.00
2023-01-28T14:54:54.053Z,98841.00
2023-01-28T14:57:42.675Z,98833.00
2023-01-28T15:00:23.781Z,98837.00
2023-01-28T15:02:51.789Z,98834.00
2023-01-28T15:05:22.984Z,98835.00
2023-01-28T15:07:51.709Z,98849.00
2023-01-28T15:10:22.620Z,98839.00
2023-01-28T15:12:55.216Z,98847.00
2023-01-28T15:15:30.919Z,98853.00
2023-01-28T15:18:05.651Z,98846.00
2023-01-28T15:20:36.721Z,98854.00
2023-01-28T15:23:10.372Z,98855.00
2023-01-28T15:25:39.952Z,98863.00
2023-01-28T15:28:17.305Z,98867.00
2023-01-28T15:30:47.176Z,98857.00
2023-01-28T15:33:20.754Z,98870.00
2023-01-28T15:35:52.044Z,98879.00
2023-01-28T15:38:21.974Z,98882.00
2023-01-28T15:40:57.649Z,98871.00
2023-01-28T15:43:32.717Z,98875.00
2023-01-28T15:46:05.757Z,98875.00
2023-01-28T15:48:36.229Z,98884.00
2023-01-28T15:51:12.484Z,98879.00
2023-01-28T15:53:47.625Z,98881.00
2023-01-28T15:56:17.312Z,98886.00
2023-01-28T15:58:46.362Z,98891.00
2023-01-28T16:01:17.132Z,98897.00
2023-01-28T16:03:46.226Z,98899.00
2023-01-28T16:06:18.721Z,98907.00
2023-01-28T16:08:52.962Z,98911.00
2023-01-28T16:11:27.843Z,98908.00
2023-01-28T16:13:56.448Z,98910.00
2023-01-28T16:16:33.086Z,98917.00
2023-01-28T16:19:03.715Z,98917.00
2023-01-28T16:21:34.916Z,98924.00
2023-01-28T16:24:04.976Z,98914.00
2023-01-28T16:26:34.278Z,98913.00
2023-01-28T16:29:12.794Z,98919.00
2023-01-28T16:31:40.490Z,98918.00
2023-01-28T16:34:10.045Z,98921.00
2023-01-28T16:36:39.169Z,98915.00
2023-01-28T16:39:06.847Z,98921.00
2023-01-28T16:41:39.146Z,98923.00
2023-01-28T16:44:07.210Z,98929.00
2023-01-28T16:46:35.067Z,98931.00
2023-01-28T16:49:03.069Z,98929.00
2023-01-28T16:51:30.842Z,98917.00
2023-01-28T16:54:00.139Z,98905.00
2023-01-28T16:56:44.529Z,98914.00
2023-01-28T16:59:14.922Z,98925.00
2023-01-28T17:01:42.594Z,98914.00
2023-01-28T17:04:12.609Z,98905.00
2023-01-28T17:06:42.745Z,98900.00
2023-01-28T17:09:13.116Z,98903.00
2023-01-28T17:11:41.156Z,98906.00
2023-01-28T17:14:09.272Z,98916.00
2023-01-28T17:16:37.083Z,98916.00
2023-01-28T17:19:04.831Z,98911.00
2023-01-28T17:21:32.493Z,98921.00
2023-01-28T17:24:01.267Z,98921.00
2023-01-28T17:26:30.266Z,98924.00
2023-01-28T17:28:58.277Z,98919.00
2023-01-28T17:31:26.567Z,98914.00
2023-01-28T17:33:55.443Z,98924.00
2023-01-28T17:36:23.648Z,98935.00
2023-01-28T17:38:51.471Z,98917.00
2023-01-28T17:41:19.864Z,98930.00
2023-01-28T17:43:52.656Z,98935.00
2023-01-28T17:46:21.432Z,98955.00
2023-01-28T17:48:49.223Z,98948.00
2023-01-28T17:51:18.674Z,98948.00
2023-01-28T17:53:47.283Z,98956.00
2023-01-28T17:56:17.479Z,98959.00
2023-01-28T17:58:45.218Z,98958.00
2023-01-28T18:01:14.219Z,98946.00
2023-01-28T18:03:41.856Z,98937.00
2023-01-28T18:06:09.502Z,98937.00
2023-01-28T18:08:37.107Z,98935.00
2023-01-28T18:11:08.778Z,98938.00
2023-01-28T18:13:36.704Z,98936.00
2023-01-28T18:16:05.299Z,98933.00
2023-01-28T18:18:34.397Z,98942.00
2023-01-28T18:21:03.560Z,98949.00
2023-01-28T18:23:32.014Z,98954.00
2023-01-28T18:26:00.872Z,98958.00
2023-01-28T18:28:29.050Z,98951.00
2023-01-28T18:30:56.928Z,98954.00
2023-01-28T18:33:24.741Z,98973.00
2023-01-28T18:35:53.710Z,98973.00
2023-01-28T18:38:21.308Z,98968.00
2023-01-28T18:40:49.001Z,98966.00
2023-01-28T18:43:16.582Z,98968.00
2023-01-28T18:45:45.774Z,98972.00
2023-01-28T18:48:13.419Z,98981.00
2023-01-28T18:50:41.095Z,98982.00
2023-01-28T18:53:10.173Z,98989.00
2023-01-28T18:55:37.804Z,98995.00
2023-01-28T18:58:05.403Z,98986.00
2023-01-28T19:00:33.172Z,98984.00
2023-01-28T19:03:02.211Z,98990.00
2023-01-28T19:05:30.274Z,98986.00
2023-01-28T19:07:58.777Z,98992.00
2023-01-28T19:10:27.816Z,98999.00
2023-01-28T19:12:55.452Z,99004.00
2023-01-28T19:15:23.183Z,99002.00
2023-01-28T19:17:50.900Z,99000.00
2023-01-28T19:20:19.398Z,99003.00
2023-01-28T19:22:47.428Z,99003.00
2023-01-28T19:25:16.055Z,99001.00
2023-01-28T19:27:49.369Z,99003.00
2023-01-28T19:30:19.885Z,99007.00
2023-01-28T19:32:47.562Z,99007.00
2023-01-28T19:35:15.615Z,99006.00
2023-01-28T19:37:43.385Z,99000.00
2023-01-28T19:40:12.398Z,99006.00
2023-01-28T19:42:40.377Z,99007.00
2023-01-28T19:45:10.357Z,99001.00
2023-01-28T19:47:37.965Z,99005.00
2023-01-28T19:50:06.649Z,98999.00
2023-01-28T19:52:34.268Z,99006.00
2023-01-28T19:55:01.985Z,99004.00
2023-01-28T19:57:29.768Z,98999.00
2023-01-28T19:59:57.653Z,99015.00
2023-01-28T20:02:27.711Z,99011.00
2023-01-28T20:05:00.928Z,99006.00
2023-01-28T20:07:28.913Z,99004.00
2023-01-28T20:09:56.511Z,99011.00
2023-01-28T20:12:24.330Z,99008.00
2023-01-28T20:14:51.984Z,99020.00
2023-01-28T20:17:20.507Z,99018.00
2023-01-28T20:19:49.820Z,99022.00
2023-01-28T20:22:17.435Z,99040.00
2023-01-28T20:24:45.036Z,99052.00
2023-01-28T20:27:12.695Z,99064.00
2023-01-28T20:29:40.599Z,99071.00
2023-01-28T20:32:16.559Z,99082.00
2023-01-28T20:34:46.644Z,99080.00
2023-01-28T20:37:15.600Z,99076.00
2023-01-28T20:39:43.669Z,99078.00
2023-01-28T20:42:13.212Z,99084.00
2023-01-28T20:44:41.316Z,99091.00
2023-01-28T20:47:09.212Z,99101.00
2023-01-28T20:49:36.814Z,99093.00
2023-01-28T20:52:05.926Z,99092.00
2023-01-28T20:54:34.911Z,99092.00
2023-01-28T20:57:02.516Z,99092.00
2023-01-28T20:59:31.784Z,99084.00
2023-01-28T21:02:00.668Z,99077.00
2023-01-28T21:04:28.340Z,99086.00
2023-01-28T21:06:55.975Z,99073.00
2023-01-28T21:09:25.474Z,99073.00
2023-01-28T21:11:54.547Z,99065.00
2023-01-28T21:14:22.298Z,99065.00
2023-01-28T21:16:52.986Z,99074.00
2023-01-28T21:19:20.792Z,99076.00
2023-01-28T21:21:48.456Z,99081.00
2023-01-28T21:24:16.107Z,99074.00
2023-01-28T21:26:43.742Z,99072.00
2023-01-28T21:29:14.593Z,99072.00
2023-01-28T21:31:42.657Z,99066.00
2023-01-28T21:34:10.327Z,99053.00
2023-01-28T21:36:38.046Z,99058.00
2023-01-28T21:39:06.421Z,99074.00
2023-01-28T21:41:34.029Z,99074.00
2023-01-28T21:44:01.700Z,99072.00
2023-01-28T21:46:33.686Z,99068.00
2023-01-28T21:49:02.975Z,99063.00
2023-01-28T21:51:39.249Z,99063.00
2023-01-28T21:54:08.875Z,99068.00
2023-01-28T21:56:36.529Z,99083.00
2023-01-28T21:59:22.193Z,99090.00
2023-01-28T22:01:51.298Z,99095.00
2023-01-28T22:04:19.015Z,99093.00
2023-01-28T22:06:46.899Z,99091.00
2023-01-28T22:09:14.556Z,99094.00
2023-01-28T22:11:43.462Z,99094.00
2023-01-28T22:14:12.024Z,99087.00
2023-01-28T22:16:39.742Z,99082.00
2023-01-28T22:19:08.974Z,99079.00
2023-01-28T22:21:41.008Z,99078.00
2023-01-28T22:24:11.326Z,99084.00
2023-01-28T22:26:39.179Z,99073.00
2023-01-28T22:29:07.560Z,99068.00
2023-01-28T22:31:35.358Z,99075.00
2023-01-28T22:34:03.186Z,99078.00
2023-01-28T22:36:33.421Z,99067.00
2023-01-28T22:39:02.198Z,99068.00
2023-01-28T22:41:30.019Z,99072.00
2023-01-28T22:43:57.851Z,99074.00
2023-01-28T22:46:26.089Z,99079.00
2023-01-28T22:48:54.171Z,99081.00
2023-01-28T22:51:24.173Z,99084.00
2023-01-28T22:53:53.852Z,99085.00
2023-01-28T22:56:24.519Z,99079.00
2023-01-28T22:58:55.834Z,99081.00
2023-01-28T23:01:23.776Z,99082.00
2023-01-28T23:03:52.325Z,99077.00
2023-01-28T23:06:21.783Z,99081.00
2023-01-28T23:08:49.794Z,99074.00
2023-01-28T23:11:25.240Z,99076.00
2023-01-28T23:14:11.842Z,99066.00
2023-01-28T23:16:57.213Z,99058.00
2023-01-28T23:19:42.237Z,99058.00
2023-01-28T23:22:34.368Z,99068.00
2023-01-28T23:25:01.999Z,99072.00
2023-01-28T23:27:31.058Z,99072.00
2023-01-28T23:29:58.698Z,99071.00
2023-01-28T23:32:27.155Z,99069.00
2023-01-28T23:34:54.827Z,99065.00
2023-01-28T23:37:23.091Z,99075.00
2023-01-28T23:39:50.673Z,99070.00
2023-01-28T23:42:20.674Z,99060.00
2023-01-28T23:44:49.620Z,99066.00
2023-01-28T23:47:17.351Z,99066.00
2023-01-28T23:49:45.218Z,99064.00
2023-01-28T23:52:12.868Z,99071.00
2023-01-28T23:54:40.858Z,99080.00
2023-01-28T23:57:08.532Z,99075.00
2023-01-28T23:59:36.629Z,99062.00
